CES1106 ZBAA-RCKH
Flight info
| Callsign | CES1106 |
|---|---|
| Flight time | 3h 15m |
| Altitude | 37100 |
| Route | ELKUR W40 YQG W142 DALIM A593 PK W116 JTN G327 BOLEX B591 KASKA/N0483F371 L2 BERBA B591 APU W4 PIDGY T13 LUGIA |
| Aircraft | B77W/H-SDE1E2E3FGHIJ2J3J4J5M1RWXY/LB1D1 |
Departure
| Time | 2026-04-16 12:23 |
|---|---|
| Airport | Beijing Capital International Airport (ZBAA) |
Arrival
| Time | 2026-04-16 15:38 |
|---|---|
| Airport | Kaohsiung International Airport (RCKH) |
| Time | Latitude | Longitude | Altitude | Speed | Heading |
|---|---|---|---|---|---|
| 2026-04-16 12:05 | 40.06413 | 116.60615 | 123 ft | 0 kts | 83° |
| 2026-04-16 12:12 | 40.06413 | 116.60610 | 128 ft | 3 kts | 83° |
| 2026-04-16 12:12 | 40.06409 | 116.60576 | 126 ft | 4 kts | 83° |
| 2026-04-16 12:12 | 40.06406 | 116.60542 | 123 ft | 4 kts | 90° |
| 2026-04-16 12:13 | 40.06412 | 116.60511 | 123 ft | 4 kts | 130° |
| 2026-04-16 12:13 | 40.06432 | 116.60492 | 123 ft | 4 kts | 163° |
| 2026-04-16 12:13 | 40.06459 | 116.60485 | 123 ft | 4 kts | 174° |
| 2026-04-16 12:13 | 40.06480 | 116.60482 | 125 ft | 4 kts | 173° |
| 2026-04-16 12:14 | 40.06505 | 116.60478 | 123 ft | 2 kts | 173° |
| 2026-04-16 12:14 | 40.06507 | 116.60478 | 123 ft | 0 kts | 173° |
| 2026-04-16 12:17 | 40.06497 | 116.60479 | 126 ft | 7 kts | 173° |
| 2026-04-16 12:17 | 40.06446 | 116.60488 | 123 ft | 8 kts | 172° |
| 2026-04-16 12:17 | 40.06395 | 116.60497 | 123 ft | 8 kts | 172° |
| 2026-04-16 12:18 | 40.06343 | 116.60506 | 124 ft | 8 kts | 173° |
| 2026-04-16 12:18 | 40.06278 | 116.60516 | 126 ft | 12 kts | 173° |
| 2026-04-16 12:18 | 40.06191 | 116.60530 | 126 ft | 14 kts | 173° |
| 2026-04-16 12:18 | 40.06072 | 116.60548 | 124 ft | 21 kts | 173° |
| 2026-04-16 12:19 | 40.05908 | 116.60573 | 124 ft | 26 kts | 173° |
| 2026-04-16 12:19 | 40.05760 | 116.60597 | 124 ft | 16 kts | 173° |
| 2026-04-16 12:19 | 40.05684 | 116.60609 | 126 ft | 7 kts | 173° |
| 2026-04-16 12:19 | 40.05614 | 116.60606 | 125 ft | 10 kts | 198° |
| 2026-04-16 12:20 | 40.05598 | 116.60595 | 124 ft | 0 kts | 209° |
| 2026-04-16 12:20 | 40.05581 | 116.60572 | 125 ft | 10 kts | 235° |
| 2026-04-16 12:20 | 40.05566 | 116.60479 | 126 ft | 9 kts | 264° |
| 2026-04-16 12:20 | 40.05554 | 116.60332 | 126 ft | 24 kts | 264° |
| 2026-04-16 12:21 | 40.05543 | 116.60177 | 124 ft | 10 kts | 264° |
| 2026-04-16 12:21 | 40.05556 | 116.60066 | 126 ft | 18 kts | 295° |
| 2026-04-16 12:21 | 40.05658 | 116.59995 | 126 ft | 0 kts | 352° |
| 2026-04-16 12:22 | 40.05711 | 116.59986 | 124 ft | 28 kts | 352° |
| 2026-04-16 12:22 | 40.06157 | 116.59915 | 126 ft | 98 kts | 353° |
| 2026-04-16 12:22 | 40.07034 | 116.59780 | 126 ft | 158 kts | 353° |
| 2026-04-16 12:22 | 40.08286 | 116.59571 | 214 ft | 197 kts | 353° |
| 2026-04-16 12:23 | 40.09655 | 116.59411 | 800 ft | 199 kts | 354° |
| 2026-04-16 12:23 | 40.11033 | 116.59207 | 1477 ft | 201 kts | 352° |
| 2026-04-16 12:23 | 40.12451 | 116.58974 | 2040 ft | 208 kts | 351° |
| 2026-04-16 12:23 | 40.13902 | 116.58734 | 2607 ft | 214 kts | 351° |
| 2026-04-16 12:24 | 40.14754 | 116.58594 | 2874 ft | 220 kts | 351° |
| 2026-04-16 12:24 | 40.15902 | 116.58405 | 3108 ft | 235 kts | 351° |
| 2026-04-16 12:25 | 40.17571 | 116.58133 | 3463 ft | 251 kts | 351° |
| 2026-04-16 12:25 | 40.19320 | 116.57852 | 4166 ft | 256 kts | 351° |
| 2026-04-16 12:25 | 40.21114 | 116.57565 | 4958 ft | 262 kts | 352° |
| 2026-04-16 12:25 | 40.22945 | 116.57272 | 5693 ft | 267 kts | 352° |
| 2026-04-16 12:26 | 40.24771 | 116.56861 | 5927 ft | 268 kts | 339° |
| 2026-04-16 12:26 | 40.26319 | 116.55536 | 5951 ft | 266 kts | 318° |
| 2026-04-16 12:26 | 40.27690 | 116.53883 | 5923 ft | 269 kts | 319° |
| 2026-04-16 12:26 | 40.29085 | 116.52262 | 5926 ft | 267 kts | 319° |
| 2026-04-16 12:27 | 40.30449 | 116.50672 | 5913 ft | 264 kts | 316° |
| 2026-04-16 12:27 | 40.31436 | 116.48699 | 6143 ft | 263 kts | 288° |
| 2026-04-16 12:27 | 40.31697 | 116.46294 | 6877 ft | 272 kts | 272° |
| 2026-04-16 12:27 | 40.31691 | 116.43802 | 7708 ft | 274 kts | 272° |
| 2026-04-16 12:28 | 40.31682 | 116.41304 | 8547 ft | 275 kts | 272° |
| 2026-04-16 12:28 | 40.31673 | 116.38786 | 9417 ft | 277 kts | 273° |
| 2026-04-16 12:28 | 40.31667 | 116.37108 | 9978 ft | 279 kts | 273° |
| 2026-04-16 12:28 | 40.31663 | 116.34538 | 10626 ft | 289 kts | 273° |
| 2026-04-16 12:29 | 40.31664 | 116.30835 | 10923 ft | 324 kts | 273° |
| 2026-04-16 12:29 | 40.31658 | 116.27765 | 11100 ft | 347 kts | 271° |
| 2026-04-16 12:29 | 40.31177 | 116.24585 | 11395 ft | 369 kts | 248° |
| 2026-04-16 12:29 | 40.29698 | 116.21786 | 12148 ft | 382 kts | 227° |
| 2026-04-16 12:30 | 40.27497 | 116.19794 | 13005 ft | 388 kts | 211° |
| 2026-04-16 12:30 | 40.25066 | 116.18172 | 13754 ft | 395 kts | 210° |
| 2026-04-16 12:30 | 40.23437 | 116.17097 | 14310 ft | 397 kts | 210° |
| 2026-04-16 12:30 | 40.20973 | 116.15465 | 15238 ft | 397 kts | 210° |
| 2026-04-16 12:31 | 40.17717 | 116.13284 | 16454 ft | 398 kts | 210° |
| 2026-04-16 12:31 | 40.15249 | 116.11614 | 17280 ft | 401 kts | 211° |
| 2026-04-16 12:31 | 40.13571 | 116.10473 | 17840 ft | 403 kts | 211° |
| 2026-04-16 12:31 | 40.10268 | 116.08222 | 18891 ft | 406 kts | 211° |
| 2026-04-16 12:32 | 40.08607 | 116.07089 | 19364 ft | 407 kts | 211° |
| 2026-04-16 12:32 | 40.06088 | 116.05375 | 20066 ft | 408 kts | 210° |
| 2026-04-16 12:32 | 40.02428 | 116.03897 | 20728 ft | 426 kts | 188° |
| 2026-04-16 12:32 | 39.99445 | 116.04118 | 20995 ft | 436 kts | 172° |
| 2026-04-16 12:33 | 39.96581 | 116.05444 | 21014 ft | 439 kts | 161° |
| 2026-04-16 12:33 | 39.94701 | 116.06446 | 21006 ft | 442 kts | 162° |
| 2026-04-16 12:33 | 39.91835 | 116.07904 | 20996 ft | 442 kts | 163° |
| 2026-04-16 12:33 | 39.88033 | 116.09767 | 21049 ft | 442 kts | 163° |
| 2026-04-16 12:34 | 39.86075 | 116.10714 | 21395 ft | 446 kts | 163° |
| 2026-04-16 12:34 | 39.82216 | 116.12581 | 22362 ft | 448 kts | 163° |
| 2026-04-16 12:34 | 39.80310 | 116.13622 | 22826 ft | 451 kts | 159° |
| 2026-04-16 12:34 | 39.77530 | 116.15584 | 23412 ft | 459 kts | 153° |
| 2026-04-16 12:35 | 39.74804 | 116.17797 | 23933 ft | 464 kts | 152° |
| 2026-04-16 12:35 | 39.72085 | 116.20077 | 24480 ft | 465 kts | 152° |
| 2026-04-16 12:35 | 39.69357 | 116.22333 | 25106 ft | 465 kts | 152° |
| 2026-04-16 12:35 | 39.66607 | 116.24548 | 25706 ft | 466 kts | 153° |
| 2026-04-16 12:36 | 39.63868 | 116.26705 | 26212 ft | 467 kts | 153° |
| 2026-04-16 12:36 | 39.61073 | 116.28878 | 26704 ft | 470 kts | 153° |
| 2026-04-16 12:36 | 39.58262 | 116.31052 | 27197 ft | 472 kts | 153° |
| 2026-04-16 12:36 | 39.55436 | 116.33238 | 27700 ft | 474 kts | 153° |
| 2026-04-16 12:37 | 39.52606 | 116.35429 | 28192 ft | 475 kts | 153° |
| 2026-04-16 12:37 | 39.49763 | 116.37630 | 28655 ft | 477 kts | 153° |
| 2026-04-16 12:37 | 39.46871 | 116.39729 | 29018 ft | 476 kts | 160° |
| 2026-04-16 12:37 | 39.43752 | 116.41080 | 29338 ft | 473 kts | 170° |
| 2026-04-16 12:38 | 39.40554 | 116.42047 | 29834 ft | 470 kts | 171° |
| 2026-04-16 12:38 | 39.37417 | 116.42946 | 30417 ft | 467 kts | 171° |
| 2026-04-16 12:38 | 39.34258 | 116.43870 | 30926 ft | 464 kts | 171° |
| 2026-04-16 12:38 | 39.31117 | 116.44824 | 31331 ft | 464 kts | 170° |
| 2026-04-16 12:39 | 39.27976 | 116.45811 | 31709 ft | 464 kts | 170° |
| 2026-04-16 12:39 | 39.24844 | 116.46819 | 32041 ft | 465 kts | 170° |
| 2026-04-16 12:39 | 39.21705 | 116.47840 | 32386 ft | 465 kts | 170° |
| 2026-04-16 12:39 | 39.18566 | 116.48866 | 32770 ft | 465 kts | 170° |
| 2026-04-16 12:40 | 39.15438 | 116.49889 | 33180 ft | 463 kts | 170° |
| 2026-04-16 12:40 | 39.12315 | 116.50908 | 33543 ft | 463 kts | 170° |
| 2026-04-16 12:40 | 39.09195 | 116.51923 | 33889 ft | 463 kts | 170° |
| 2026-04-16 12:40 | 39.06114 | 116.52923 | 34191 ft | 462 kts | 170° |
| 2026-04-16 12:41 | 39.02992 | 116.53934 | 34379 ft | 464 kts | 171° |
| 2026-04-16 12:41 | 38.99849 | 116.54950 | 34516 ft | 467 kts | 171° |
| 2026-04-16 12:41 | 38.96699 | 116.55968 | 34760 ft | 467 kts | 171° |
| 2026-04-16 12:41 | 38.93541 | 116.56989 | 34895 ft | 469 kts | 171° |
| 2026-04-16 12:42 | 38.87225 | 116.59030 | 34972 ft | 466 kts | 171° |
| 2026-04-16 12:42 | 38.80902 | 116.61066 | 35042 ft | 472 kts | 171° |
| 2026-04-16 12:43 | 38.77750 | 116.62079 | 35145 ft | 475 kts | 171° |
| 2026-04-16 12:43 | 38.74547 | 116.63111 | 35390 ft | 474 kts | 171° |
| 2026-04-16 12:43 | 38.71352 | 116.64140 | 35653 ft | 473 kts | 172° |
| 2026-04-16 12:43 | 38.68168 | 116.65163 | 35936 ft | 471 kts | 172° |
| 2026-04-16 12:44 | 38.65003 | 116.66156 | 36306 ft | 465 kts | 174° |
| 2026-04-16 12:44 | 38.61839 | 116.66527 | 36588 ft | 449 kts | 189° |
| 2026-04-16 12:44 | 38.58747 | 116.66123 | 36746 ft | 447 kts | 192° |
| 2026-04-16 12:44 | 38.55649 | 116.65659 | 36849 ft | 450 kts | 192° |
| 2026-04-16 12:45 | 38.49431 | 116.64822 | 37017 ft | 455 kts | 191° |
| 2026-04-16 12:45 | 38.43102 | 116.64089 | 37082 ft | 457 kts | 190° |
| 2026-04-16 12:46 | 38.36788 | 116.63378 | 37073 ft | 453 kts | 191° |
| 2026-04-16 12:46 | 38.30479 | 116.63068 | 37081 ft | 458 kts | 182° |
| 2026-04-16 12:47 | 38.24134 | 116.64257 | 37089 ft | 466 kts | 172° |
| 2026-04-16 12:47 | 38.17918 | 116.66593 | 37068 ft | 470 kts | 169° |
| 2026-04-16 12:48 | 38.11649 | 116.68967 | 37090 ft | 470 kts | 171° |
| 2026-04-16 12:48 | 38.05357 | 116.71328 | 37095 ft | 473 kts | 170° |
| 2026-04-16 12:49 | 37.99043 | 116.73744 | 37093 ft | 474 kts | 170° |
| 2026-04-16 12:49 | 37.92757 | 116.76150 | 37093 ft | 476 kts | 170° |
| 2026-04-16 12:50 | 37.86413 | 116.78567 | 37094 ft | 477 kts | 170° |
| 2026-04-16 12:50 | 37.80057 | 116.80982 | 37094 ft | 477 kts | 170° |
| 2026-04-16 12:51 | 37.73706 | 116.83390 | 37093 ft | 476 kts | 170° |
| 2026-04-16 12:51 | 37.67362 | 116.85792 | 37091 ft | 475 kts | 170° |
| 2026-04-16 12:52 | 37.61082 | 116.88164 | 37101 ft | 473 kts | 171° |
| 2026-04-16 12:52 | 37.54790 | 116.90538 | 37090 ft | 471 kts | 171° |
| 2026-04-16 12:53 | 37.48525 | 116.92897 | 37093 ft | 469 kts | 171° |
| 2026-04-16 12:53 | 37.42329 | 116.95226 | 37092 ft | 466 kts | 171° |
| 2026-04-16 12:54 | 37.36118 | 116.97556 | 37093 ft | 465 kts | 171° |
| 2026-04-16 12:54 | 37.29914 | 116.99885 | 37097 ft | 466 kts | 170° |
| 2026-04-16 12:55 | 37.23781 | 117.02656 | 37079 ft | 469 kts | 167° |
| 2026-04-16 12:55 | 37.17701 | 117.05509 | 37086 ft | 470 kts | 167° |
| 2026-04-16 12:56 | 37.11564 | 117.08382 | 37102 ft | 471 kts | 167° |
| 2026-04-16 12:56 | 37.05411 | 117.11257 | 37104 ft | 473 kts | 167° |
| 2026-04-16 12:57 | 36.99241 | 117.14136 | 37053 ft | 474 kts | 168° |
| 2026-04-16 12:57 | 36.93106 | 117.16996 | 37097 ft | 474 kts | 168° |
| 2026-04-16 12:58 | 36.86914 | 117.19821 | 37096 ft | 471 kts | 172° |
| 2026-04-16 12:58 | 36.80604 | 117.21396 | 37110 ft | 457 kts | 182° |
| 2026-04-16 12:59 | 36.74330 | 117.21614 | 37069 ft | 448 kts | 189° |
| 2026-04-16 13:00 | 36.65018 | 117.21468 | 37103 ft | 449 kts | 189° |
| 2026-04-16 13:00 | 36.58771 | 117.21415 | 37114 ft | 449 kts | 189° |
| 2026-04-16 13:01 | 36.52518 | 117.21374 | 37089 ft | 449 kts | 189° |
| 2026-04-16 13:01 | 36.46264 | 117.21333 | 37102 ft | 450 kts | 188° |
| 2026-04-16 13:02 | 36.39986 | 117.22130 | 37122 ft | 463 kts | 178° |
| 2026-04-16 13:02 | 36.33676 | 117.24228 | 37127 ft | 472 kts | 172° |
| 2026-04-16 13:03 | 36.27396 | 117.26634 | 37112 ft | 472 kts | 172° |
| 2026-04-16 13:03 | 36.21116 | 117.29004 | 37112 ft | 471 kts | 173° |
| 2026-04-16 13:04 | 36.14881 | 117.31323 | 37117 ft | 471 kts | 173° |
| 2026-04-16 13:04 | 36.08598 | 117.33651 | 37113 ft | 471 kts | 173° |
| 2026-04-16 13:05 | 36.02325 | 117.35975 | 37108 ft | 470 kts | 173° |
| 2026-04-16 13:05 | 35.96095 | 117.38287 | 37112 ft | 471 kts | 173° |
| 2026-04-16 13:06 | 35.89826 | 117.40636 | 37112 ft | 471 kts | 172° |
| 2026-04-16 13:06 | 35.83552 | 117.42988 | 37110 ft | 471 kts | 173° |
| 2026-04-16 13:07 | 35.77288 | 117.45331 | 37113 ft | 470 kts | 173° |
| 2026-04-16 13:07 | 35.71027 | 117.47666 | 37084 ft | 470 kts | 173° |
| 2026-04-16 13:08 | 35.64813 | 117.49981 | 37110 ft | 470 kts | 173° |
| 2026-04-16 13:08 | 35.58563 | 117.52304 | 37123 ft | 469 kts | 173° |
| 2026-04-16 13:09 | 35.52313 | 117.54623 | 37119 ft | 469 kts | 173° |
| 2026-04-16 13:09 | 35.46105 | 117.56923 | 37130 ft | 469 kts | 173° |
| 2026-04-16 13:10 | 35.39853 | 117.59237 | 37120 ft | 469 kts | 173° |
| 2026-04-16 13:10 | 35.33607 | 117.61544 | 37119 ft | 469 kts | 173° |
| 2026-04-16 13:11 | 35.27361 | 117.63848 | 37118 ft | 469 kts | 173° |
| 2026-04-16 13:11 | 35.21118 | 117.66147 | 37123 ft | 469 kts | 173° |
| 2026-04-16 13:12 | 35.14918 | 117.68427 | 37125 ft | 469 kts | 173° |
| 2026-04-16 13:12 | 35.08674 | 117.70720 | 37122 ft | 468 kts | 173° |
| 2026-04-16 13:13 | 35.02436 | 117.73000 | 37115 ft | 468 kts | 173° |
| 2026-04-16 13:13 | 34.96198 | 117.75269 | 37119 ft | 468 kts | 173° |
| 2026-04-16 13:14 | 34.90002 | 117.77525 | 37119 ft | 468 kts | 173° |
| 2026-04-16 13:14 | 34.83758 | 117.79792 | 37120 ft | 468 kts | 173° |
| 2026-04-16 13:15 | 34.77512 | 117.82015 | 37118 ft | 468 kts | 173° |
| 2026-04-16 13:15 | 34.71256 | 117.84259 | 37119 ft | 469 kts | 173° |
| 2026-04-16 13:16 | 34.64990 | 117.86511 | 37117 ft | 470 kts | 173° |
| 2026-04-16 13:16 | 34.58747 | 117.88751 | 37115 ft | 471 kts | 173° |
| 2026-04-16 13:17 | 34.52459 | 117.91003 | 37107 ft | 471 kts | 173° |
| 2026-04-16 13:17 | 34.46168 | 117.93251 | 37114 ft | 472 kts | 173° |
| 2026-04-16 13:18 | 34.39910 | 117.95486 | 37106 ft | 472 kts | 173° |
| 2026-04-16 13:18 | 34.33608 | 117.97731 | 37106 ft | 472 kts | 173° |
| 2026-04-16 13:19 | 34.27417 | 118.00669 | 37109 ft | 486 kts | 162° |
| 2026-04-16 13:19 | 34.21611 | 118.05071 | 37116 ft | 499 kts | 153° |
| 2026-04-16 13:20 | 34.16043 | 118.10094 | 37115 ft | 499 kts | 152° |
| 2026-04-16 13:20 | 34.10487 | 118.15017 | 37102 ft | 498 kts | 153° |
| 2026-04-16 13:21 | 34.04872 | 118.19916 | 37105 ft | 498 kts | 153° |
| 2026-04-16 13:21 | 33.99262 | 118.24810 | 37097 ft | 497 kts | 153° |
| 2026-04-16 13:22 | 33.93661 | 118.29699 | 37110 ft | 497 kts | 153° |
| 2026-04-16 13:22 | 33.88103 | 118.34565 | 37108 ft | 497 kts | 153° |
| 2026-04-16 13:23 | 33.82511 | 118.39459 | 37090 ft | 497 kts | 153° |
| 2026-04-16 13:23 | 33.76922 | 118.44341 | 37099 ft | 496 kts | 153° |
| 2026-04-16 13:24 | 33.71337 | 118.49210 | 37091 ft | 496 kts | 154° |
| 2026-04-16 13:24 | 33.65789 | 118.54038 | 37097 ft | 495 kts | 154° |
| 2026-04-16 13:25 | 33.60209 | 118.58886 | 37098 ft | 495 kts | 154° |
| 2026-04-16 13:25 | 33.54627 | 118.63729 | 37097 ft | 495 kts | 154° |
| 2026-04-16 13:26 | 33.49047 | 118.68566 | 37079 ft | 495 kts | 154° |
| 2026-04-16 13:26 | 33.43505 | 118.73361 | 37074 ft | 495 kts | 154° |
| 2026-04-16 13:27 | 33.37931 | 118.78189 | 37085 ft | 494 kts | 154° |
| 2026-04-16 13:27 | 33.32357 | 118.83014 | 37090 ft | 495 kts | 154° |
| 2026-04-16 13:28 | 33.26781 | 118.87838 | 37089 ft | 495 kts | 154° |
| 2026-04-16 13:28 | 33.21246 | 118.92653 | 37088 ft | 496 kts | 154° |
| 2026-04-16 13:29 | 33.15667 | 118.97496 | 37070 ft | 496 kts | 154° |
| 2026-04-16 13:29 | 33.10092 | 119.02335 | 37082 ft | 495 kts | 155° |
| 2026-04-16 13:30 | 33.04514 | 119.07170 | 37086 ft | 496 kts | 155° |
| 2026-04-16 13:30 | 32.98926 | 119.12009 | 37087 ft | 497 kts | 155° |
| 2026-04-16 13:31 | 32.93363 | 119.16819 | 37085 ft | 498 kts | 155° |
| 2026-04-16 13:31 | 32.87767 | 119.21690 | 37080 ft | 499 kts | 154° |
| 2026-04-16 13:32 | 32.82175 | 119.26573 | 37063 ft | 499 kts | 155° |
| 2026-04-16 13:32 | 32.76585 | 119.31446 | 37074 ft | 498 kts | 155° |
| 2026-04-16 13:33 | 32.71033 | 119.36272 | 37074 ft | 498 kts | 155° |
| 2026-04-16 13:33 | 32.65446 | 119.41120 | 37081 ft | 497 kts | 155° |
| 2026-04-16 13:34 | 32.59861 | 119.45960 | 37079 ft | 497 kts | 155° |
| 2026-04-16 13:34 | 32.54280 | 119.50790 | 37038 ft | 497 kts | 155° |
| 2026-04-16 13:35 | 32.48707 | 119.55606 | 37062 ft | 495 kts | 155° |
| 2026-04-16 13:35 | 32.43177 | 119.60362 | 37079 ft | 494 kts | 156° |
| 2026-04-16 13:36 | 32.37606 | 119.65112 | 37083 ft | 494 kts | 156° |
| 2026-04-16 13:36 | 32.32033 | 119.69863 | 37081 ft | 494 kts | 156° |
| 2026-04-16 13:37 | 32.26462 | 119.74611 | 37084 ft | 494 kts | 156° |
| 2026-04-16 13:37 | 32.20926 | 119.79316 | 37080 ft | 493 kts | 156° |
| 2026-04-16 13:38 | 32.15355 | 119.84037 | 37054 ft | 493 kts | 156° |
| 2026-04-16 13:38 | 32.09786 | 119.88754 | 37078 ft | 493 kts | 156° |
| 2026-04-16 13:39 | 32.04209 | 119.93472 | 37082 ft | 494 kts | 156° |
| 2026-04-16 13:39 | 31.98674 | 119.98216 | 37082 ft | 496 kts | 155° |
| 2026-04-16 13:40 | 31.90833 | 120.04996 | 37048 ft | 497 kts | 156° |
| 2026-04-16 13:40 | 31.75987 | 120.18244 | 37073 ft | 515 kts | 144° |
| 2026-04-16 13:40 | 31.73661 | 120.21512 | 37080 ft | 528 kts | 135° |
| 2026-04-16 13:41 | 31.71689 | 120.25204 | 37075 ft | 542 kts | 126° |
| 2026-04-16 13:41 | 31.68507 | 120.33227 | 37074 ft | 547 kts | 123° |
| 2026-04-16 13:42 | 31.65391 | 120.41383 | 37053 ft | 547 kts | 123° |
| 2026-04-16 13:42 | 31.62205 | 120.49480 | 37077 ft | 546 kts | 124° |
| 2026-04-16 13:43 | 31.58969 | 120.57531 | 37077 ft | 546 kts | 124° |
| 2026-04-16 13:43 | 31.55717 | 120.65582 | 37077 ft | 546 kts | 124° |
| 2026-04-16 13:44 | 31.52491 | 120.73568 | 37080 ft | 546 kts | 124° |
| 2026-04-16 13:44 | 31.49243 | 120.81606 | 37054 ft | 546 kts | 124° |
| 2026-04-16 13:45 | 31.45991 | 120.89634 | 37079 ft | 545 kts | 124° |
| 2026-04-16 13:45 | 31.42757 | 120.97597 | 37064 ft | 545 kts | 124° |
| 2026-04-16 13:46 | 31.39496 | 121.05610 | 37082 ft | 545 kts | 124° |
| 2026-04-16 13:46 | 31.36231 | 121.13619 | 37090 ft | 546 kts | 124° |
| 2026-04-16 13:47 | 31.32959 | 121.21630 | 37095 ft | 546 kts | 124° |
| 2026-04-16 13:47 | 31.31250 | 121.25570 | 37059 ft | 535 kts | 133° |
| 2026-04-16 13:47 | 31.29000 | 121.28801 | 37088 ft | 507 kts | 150° |
| 2026-04-16 13:47 | 31.26210 | 121.31130 | 37099 ft | 482 kts | 164° |
| 2026-04-16 13:48 | 31.23213 | 121.32722 | 37095 ft | 467 kts | 173° |
| 2026-04-16 13:48 | 31.20131 | 121.33714 | 37088 ft | 450 kts | 184° |
| 2026-04-16 13:48 | 31.17091 | 121.34014 | 37100 ft | 438 kts | 184° |
| 2026-04-16 13:48 | 31.14066 | 121.35077 | 37096 ft | 475 kts | 163° |
| 2026-04-16 13:49 | 31.11311 | 121.37433 | 37094 ft | 510 kts | 143° |
| 2026-04-16 13:49 | 31.09185 | 121.40888 | 37058 ft | 540 kts | 123° |
| 2026-04-16 13:49 | 31.07971 | 121.45109 | 37089 ft | 562 kts | 104° |
| 2026-04-16 13:49 | 31.07782 | 121.49656 | 37129 ft | 575 kts | 89° |
| 2026-04-16 13:50 | 31.08134 | 121.54324 | 37072 ft | 580 kts | 87° |
| 2026-04-16 13:50 | 31.08382 | 121.63703 | 37079 ft | 574 kts | 98° |
| 2026-04-16 13:51 | 31.07419 | 121.72813 | 37084 ft | 560 kts | 105° |
| 2026-04-16 13:51 | 31.06024 | 121.81732 | 37083 ft | 559 kts | 106° |
| 2026-04-16 13:52 | 31.04711 | 121.90610 | 37093 ft | 559 kts | 105° |
| 2026-04-16 13:52 | 31.03489 | 121.99573 | 37102 ft | 560 kts | 104° |
| 2026-04-16 13:53 | 31.02274 | 122.08546 | 37081 ft | 561 kts | 104° |
| 2026-04-16 13:53 | 31.01038 | 122.17520 | 37102 ft | 560 kts | 104° |
| 2026-04-16 13:54 | 30.99967 | 122.26533 | 37107 ft | 565 kts | 98° |
| 2026-04-16 13:54 | 30.99942 | 122.35661 | 37103 ft | 568 kts | 92° |
| 2026-04-16 13:55 | 31.00021 | 122.44866 | 37110 ft | 568 kts | 93° |
| 2026-04-16 13:55 | 31.00005 | 122.54078 | 37105 ft | 568 kts | 94° |
| 2026-04-16 13:56 | 30.99998 | 122.63275 | 37121 ft | 568 kts | 93° |
| 2026-04-16 13:56 | 31.00000 | 122.72424 | 37105 ft | 568 kts | 93° |
| 2026-04-16 13:57 | 31.00009 | 122.81624 | 37106 ft | 567 kts | 93° |
| 2026-04-16 13:57 | 31.00009 | 122.90816 | 37087 ft | 567 kts | 93° |
| 2026-04-16 13:58 | 30.99272 | 122.99877 | 37105 ft | 558 kts | 106° |
| 2026-04-16 13:58 | 30.98408 | 123.04270 | 37109 ft | 554 kts | 111° |
| 2026-04-16 13:58 | 30.95854 | 123.12584 | 37102 ft | 546 kts | 119° |
| 2026-04-16 13:59 | 30.92976 | 123.20769 | 37094 ft | 546 kts | 118° |
| 2026-04-16 13:59 | 30.90135 | 123.28982 | 37106 ft | 547 kts | 118° |
| 2026-04-16 14:00 | 30.87320 | 123.37241 | 37025 ft | 550 kts | 118° |
| 2026-04-16 14:00 | 30.82159 | 123.52363 | 37008 ft | 550 kts | 118° |
| 2026-04-16 14:01 | 30.79216 | 123.60531 | 36990 ft | 538 kts | 128° |
| 2026-04-16 14:01 | 30.77015 | 123.63926 | 37000 ft | 514 kts | 146° |
| 2026-04-16 14:01 | 30.74247 | 123.66377 | 37011 ft | 490 kts | 161° |
| 2026-04-16 14:02 | 30.71217 | 123.68049 | 37013 ft | 476 kts | 171° |
| 2026-04-16 14:02 | 30.68097 | 123.69180 | 36978 ft | 464 kts | 179° |
| 2026-04-16 14:02 | 30.64970 | 123.69576 | 36997 ft | 441 kts | 192° |
| 2026-04-16 14:02 | 30.61933 | 123.69512 | 37015 ft | 445 kts | 192° |
| 2026-04-16 14:03 | 30.55685 | 123.69406 | 37015 ft | 453 kts | 191° |
| 2026-04-16 14:03 | 30.49356 | 123.69368 | 37010 ft | 456 kts | 191° |
| 2026-04-16 14:04 | 30.42999 | 123.69368 | 36990 ft | 457 kts | 191° |
| 2026-04-16 14:04 | 30.36639 | 123.69375 | 36999 ft | 457 kts | 191° |
| 2026-04-16 14:05 | 30.30319 | 123.69379 | 37003 ft | 457 kts | 191° |
| 2026-04-16 14:05 | 30.23958 | 123.69381 | 36999 ft | 457 kts | 191° |
| 2026-04-16 14:06 | 30.17604 | 123.69381 | 36992 ft | 456 kts | 190° |
| 2026-04-16 14:06 | 30.11257 | 123.69381 | 36999 ft | 456 kts | 190° |
| 2026-04-16 14:07 | 30.04949 | 123.69381 | 36998 ft | 457 kts | 190° |
| 2026-04-16 14:07 | 29.98589 | 123.69382 | 36998 ft | 457 kts | 190° |
| 2026-04-16 14:08 | 29.92224 | 123.69382 | 36991 ft | 458 kts | 190° |
| 2026-04-16 14:08 | 29.85850 | 123.69382 | 36994 ft | 458 kts | 190° |
| 2026-04-16 14:09 | 29.79463 | 123.69383 | 36993 ft | 459 kts | 190° |
| 2026-04-16 14:09 | 29.73113 | 123.69384 | 36978 ft | 460 kts | 189° |
| 2026-04-16 14:10 | 29.66707 | 123.69384 | 36985 ft | 460 kts | 189° |
| 2026-04-16 14:10 | 29.60298 | 123.69385 | 37003 ft | 461 kts | 189° |
| 2026-04-16 14:11 | 29.53879 | 123.69386 | 37000 ft | 461 kts | 189° |
| 2026-04-16 14:11 | 29.47593 | 123.69400 | 36958 ft | 441 kts | 189° |
| 2026-04-16 14:12 | 29.41622 | 123.69411 | 36971 ft | 424 kts | 190° |
| 2026-04-16 14:12 | 29.35837 | 123.69413 | 36984 ft | 408 kts | 190° |
| 2026-04-16 14:13 | 29.30260 | 123.69411 | 36988 ft | 394 kts | 191° |
| 2026-04-16 14:13 | 29.24825 | 123.69395 | 36535 ft | 393 kts | 191° |
| 2026-04-16 14:14 | 29.22089 | 123.69376 | 36330 ft | 391 kts | 191° |
| 2026-04-16 14:14 | 29.19383 | 123.69371 | 36270 ft | 387 kts | 190° |
| 2026-04-16 14:14 | 29.16692 | 123.69381 | 36073 ft | 387 kts | 190° |
| 2026-04-16 14:14 | 29.13990 | 123.69395 | 35788 ft | 389 kts | 190° |
| 2026-04-16 14:15 | 29.11284 | 123.69406 | 35590 ft | 388 kts | 190° |
| 2026-04-16 14:15 | 29.08597 | 123.69415 | 35505 ft | 385 kts | 190° |
| 2026-04-16 14:15 | 29.05914 | 123.69413 | 35224 ft | 387 kts | 190° |
| 2026-04-16 14:15 | 29.03223 | 123.69393 | 35033 ft | 386 kts | 190° |
| 2026-04-16 14:16 | 28.97898 | 123.69382 | 34844 ft | 381 kts | 189° |
| 2026-04-16 14:16 | 28.95240 | 123.69391 | 34621 ft | 382 kts | 189° |
| 2026-04-16 14:16 | 28.92375 | 123.69402 | 34431 ft | 382 kts | 189° |
| 2026-04-16 14:17 | 28.87090 | 123.69408 | 34171 ft | 379 kts | 189° |
| 2026-04-16 14:17 | 28.81788 | 123.69393 | 33791 ft | 380 kts | 188° |
| 2026-04-16 14:17 | 28.79150 | 123.69396 | 33675 ft | 378 kts | 188° |
| 2026-04-16 14:18 | 28.73989 | 123.69407 | 33935 ft | 360 kts | 188° |
| 2026-04-16 14:18 | 28.71529 | 123.69289 | 34033 ft | 349 kts | 196° |
| 2026-04-16 14:18 | 28.69147 | 123.68815 | 33776 ft | 348 kts | 201° |
| 2026-04-16 14:19 | 28.66822 | 123.68086 | 33566 ft | 344 kts | 206° |
| 2026-04-16 14:19 | 28.64593 | 123.67153 | 33602 ft | 338 kts | 207° |
| 2026-04-16 14:19 | 28.60251 | 123.65248 | 33482 ft | 335 kts | 208° |
| 2026-04-16 14:20 | 28.58067 | 123.64282 | 33300 ft | 337 kts | 208° |
| 2026-04-16 14:20 | 28.55883 | 123.63323 | 33240 ft | 335 kts | 207° |
| 2026-04-16 14:20 | 28.51553 | 123.61435 | 33162 ft | 332 kts | 208° |
| 2026-04-16 14:21 | 28.47246 | 123.59563 | 32977 ft | 332 kts | 207° |
| 2026-04-16 14:21 | 28.42936 | 123.57693 | 32855 ft | 333 kts | 207° |
| 2026-04-16 14:22 | 28.40756 | 123.56747 | 33009 ft | 336 kts | 207° |
| 2026-04-16 14:22 | 28.38564 | 123.55799 | 33284 ft | 337 kts | 207° |
| 2026-04-16 14:22 | 28.36370 | 123.54851 | 33533 ft | 338 kts | 208° |
| 2026-04-16 14:22 | 28.34170 | 123.53900 | 33799 ft | 339 kts | 208° |
| 2026-04-16 14:23 | 28.31965 | 123.52948 | 34038 ft | 339 kts | 207° |
| 2026-04-16 14:23 | 28.29760 | 123.51996 | 34249 ft | 340 kts | 207° |
| 2026-04-16 14:23 | 28.27550 | 123.51042 | 34459 ft | 340 kts | 208° |
| 2026-04-16 14:23 | 28.25329 | 123.50084 | 34627 ft | 342 kts | 208° |
| 2026-04-16 14:24 | 28.23129 | 123.49134 | 34772 ft | 344 kts | 208° |
| 2026-04-16 14:24 | 28.20883 | 123.48165 | 34960 ft | 345 kts | 208° |
| 2026-04-16 14:24 | 28.18634 | 123.47197 | 35151 ft | 346 kts | 208° |
| 2026-04-16 14:24 | 28.16374 | 123.46223 | 35285 ft | 351 kts | 208° |
| 2026-04-16 14:25 | 28.14044 | 123.45214 | 35062 ft | 367 kts | 208° |
| 2026-04-16 14:25 | 28.11588 | 123.44147 | 34701 ft | 387 kts | 207° |
| 2026-04-16 14:25 | 28.09054 | 123.43058 | 34834 ft | 392 kts | 207° |
| 2026-04-16 14:25 | 28.06468 | 123.41950 | 34836 ft | 402 kts | 207° |
| 2026-04-16 14:26 | 28.02462 | 123.40233 | 34901 ft | 415 kts | 207° |
| 2026-04-16 14:26 | 27.91275 | 123.35441 | 35104 ft | 445 kts | 206° |
| 2026-04-16 14:26 | 27.79299 | 123.30314 | 35346 ft | 463 kts | 206° |
| 2026-04-16 14:26 | 27.67371 | 123.25232 | 36597 ft | 456 kts | 206° |
| 2026-04-16 14:27 | 27.55394 | 123.20126 | 37004 ft | 465 kts | 206° |
| 2026-04-16 14:27 | 27.43226 | 123.14959 | 36979 ft | 467 kts | 206° |
| 2026-04-16 14:27 | 27.36207 | 123.11993 | 36932 ft | 452 kts | 206° |
| 2026-04-16 14:27 | 27.29259 | 123.09058 | 36886 ft | 435 kts | 206° |
| 2026-04-16 14:28 | 27.13897 | 123.02564 | 36999 ft | 447 kts | 206° |
| 2026-04-16 14:28 | 27.13037 | 123.02202 | 37001 ft | 448 kts | 206° |
| 2026-04-16 14:30 | 27.10652 | 123.01183 | 36873 ft | 445 kts | 208° |
| 2026-04-16 14:31 | 27.07909 | 122.99751 | 36958 ft | 430 kts | 213° |
| 2026-04-16 14:31 | 27.05329 | 122.98086 | 36977 ft | 427 kts | 218° |
| 2026-04-16 14:31 | 27.01244 | 122.94843 | 36980 ft | 433 kts | 220° |
| 2026-04-16 14:32 | 26.96301 | 122.90876 | 36978 ft | 440 kts | 220° |
| 2026-04-16 14:32 | 26.91340 | 122.86930 | 36983 ft | 441 kts | 220° |
| 2026-04-16 14:33 | 26.86325 | 122.82960 | 36971 ft | 441 kts | 219° |
| 2026-04-16 14:33 | 26.81320 | 122.79003 | 36970 ft | 439 kts | 220° |
| 2026-04-16 14:34 | 26.76335 | 122.75063 | 36942 ft | 438 kts | 219° |
| 2026-04-16 14:34 | 26.71369 | 122.71142 | 36964 ft | 437 kts | 219° |
| 2026-04-16 14:35 | 26.66410 | 122.67230 | 36970 ft | 436 kts | 219° |
| 2026-04-16 14:35 | 26.61458 | 122.63320 | 36968 ft | 436 kts | 219° |
| 2026-04-16 14:36 | 26.56500 | 122.59408 | 36975 ft | 436 kts | 219° |
| 2026-04-16 14:36 | 26.51538 | 122.55497 | 36963 ft | 437 kts | 219° |
| 2026-04-16 14:37 | 26.46558 | 122.51578 | 36967 ft | 439 kts | 219° |
| 2026-04-16 14:37 | 26.41561 | 122.47649 | 36968 ft | 440 kts | 219° |
| 2026-04-16 14:38 | 26.36552 | 122.43715 | 36969 ft | 441 kts | 219° |
| 2026-04-16 14:38 | 26.31527 | 122.39773 | 36946 ft | 442 kts | 219° |
| 2026-04-16 14:39 | 26.26496 | 122.35831 | 36957 ft | 442 kts | 219° |
| 2026-04-16 14:39 | 26.21455 | 122.31884 | 36961 ft | 443 kts | 219° |
| 2026-04-16 14:40 | 26.16415 | 122.27943 | 36959 ft | 443 kts | 219° |
| 2026-04-16 14:40 | 26.11372 | 122.24016 | 36951 ft | 442 kts | 219° |
| 2026-04-16 14:41 | 26.06313 | 122.20128 | 36960 ft | 441 kts | 219° |
| 2026-04-16 14:41 | 26.01294 | 122.16278 | 36955 ft | 441 kts | 219° |
| 2026-04-16 14:42 | 25.96247 | 122.12404 | 36956 ft | 441 kts | 219° |
| 2026-04-16 14:42 | 25.91203 | 122.08535 | 36959 ft | 441 kts | 219° |
| 2026-04-16 14:43 | 25.86160 | 122.04671 | 36966 ft | 441 kts | 219° |
| 2026-04-16 14:43 | 25.81111 | 122.00806 | 36958 ft | 441 kts | 219° |
| 2026-04-16 14:44 | 25.76060 | 121.96943 | 36950 ft | 441 kts | 219° |
| 2026-04-16 14:44 | 25.71005 | 121.93085 | 36956 ft | 441 kts | 218° |
| 2026-04-16 14:45 | 25.65934 | 121.89239 | 36942 ft | 442 kts | 218° |
| 2026-04-16 14:45 | 25.60870 | 121.85373 | 36952 ft | 442 kts | 219° |
| 2026-04-16 14:46 | 25.55824 | 121.81474 | 36954 ft | 443 kts | 219° |
| 2026-04-16 14:46 | 25.50768 | 121.77570 | 36960 ft | 443 kts | 219° |
| 2026-04-16 14:47 | 25.45699 | 121.73669 | 36935 ft | 444 kts | 219° |
| 2026-04-16 14:47 | 25.40626 | 121.69770 | 36953 ft | 444 kts | 219° |
| 2026-04-16 14:48 | 25.35549 | 121.65873 | 36957 ft | 444 kts | 219° |
| 2026-04-16 14:48 | 25.30465 | 121.61973 | 36963 ft | 445 kts | 218° |
| 2026-04-16 14:49 | 25.25381 | 121.58077 | 36969 ft | 445 kts | 218° |
| 2026-04-16 14:49 | 25.20305 | 121.54166 | 36963 ft | 444 kts | 221° |
| 2026-04-16 14:50 | 25.15715 | 121.49652 | 36987 ft | 441 kts | 229° |
| 2026-04-16 14:50 | 25.11724 | 121.44529 | 36976 ft | 440 kts | 232° |
| 2026-04-16 14:51 | 25.07778 | 121.39371 | 36977 ft | 440 kts | 232° |
| 2026-04-16 14:51 | 25.03814 | 121.34228 | 36975 ft | 440 kts | 232° |
| 2026-04-16 14:53 | 24.87911 | 121.13726 | 36973 ft | 441 kts | 232° |
| 2026-04-16 14:54 | 24.83627 | 121.08872 | 36982 ft | 444 kts | 223° |
| 2026-04-16 14:54 | 24.78661 | 121.04783 | 36984 ft | 449 kts | 215° |
| 2026-04-16 14:55 | 24.73274 | 121.01332 | 36746 ft | 445 kts | 214° |
| 2026-04-16 14:55 | 24.70591 | 120.99656 | 36243 ft | 442 kts | 214° |
| 2026-04-16 14:55 | 24.67932 | 120.97990 | 35724 ft | 439 kts | 214° |
| 2026-04-16 14:56 | 24.65291 | 120.96326 | 35194 ft | 436 kts | 214° |
| 2026-04-16 14:56 | 24.62689 | 120.94682 | 34613 ft | 425 kts | 215° |
| 2026-04-16 14:56 | 24.60162 | 120.93081 | 33778 ft | 415 kts | 215° |
| 2026-04-16 14:56 | 24.57681 | 120.91505 | 32689 ft | 410 kts | 215° |
| 2026-04-16 14:57 | 24.55221 | 120.89939 | 31563 ft | 408 kts | 215° |
| 2026-04-16 14:57 | 24.52774 | 120.88382 | 30538 ft | 405 kts | 215° |
| 2026-04-16 14:57 | 24.50348 | 120.86841 | 29495 ft | 401 kts | 215° |
| 2026-04-16 14:57 | 24.47954 | 120.85323 | 28469 ft | 395 kts | 215° |
| 2026-04-16 14:58 | 24.45597 | 120.83830 | 27542 ft | 388 kts | 215° |
| 2026-04-16 14:58 | 24.41029 | 120.80935 | 25748 ft | 376 kts | 215° |
| 2026-04-16 14:58 | 24.38771 | 120.79509 | 24870 ft | 372 kts | 214° |
| 2026-04-16 14:59 | 24.36520 | 120.78137 | 24013 ft | 368 kts | 214° |
| 2026-04-16 14:59 | 24.34282 | 120.76801 | 23102 ft | 364 kts | 213° |
| 2026-04-16 14:59 | 24.32065 | 120.75485 | 22267 ft | 359 kts | 213° |
| 2026-04-16 14:59 | 24.29904 | 120.74202 | 21576 ft | 348 kts | 213° |
| 2026-04-16 15:00 | 24.27807 | 120.72956 | 20926 ft | 338 kts | 213° |
| 2026-04-16 15:00 | 24.25765 | 120.71737 | 20228 ft | 331 kts | 213° |
| 2026-04-16 15:00 | 24.23753 | 120.70534 | 19447 ft | 328 kts | 213° |
| 2026-04-16 15:00 | 24.21757 | 120.69339 | 18697 ft | 325 kts | 213° |
| 2026-04-16 15:01 | 24.19759 | 120.68142 | 18054 ft | 328 kts | 213° |
| 2026-04-16 15:01 | 24.17744 | 120.66936 | 17827 ft | 331 kts | 212° |
| 2026-04-16 15:01 | 24.15757 | 120.65751 | 17711 ft | 319 kts | 212° |
| 2026-04-16 15:01 | 24.13829 | 120.64601 | 17567 ft | 315 kts | 213° |
| 2026-04-16 15:02 | 24.11907 | 120.63453 | 17570 ft | 314 kts | 213° |
| 2026-04-16 15:02 | 24.09994 | 120.62310 | 17548 ft | 313 kts | 212° |
| 2026-04-16 15:02 | 24.08161 | 120.61060 | 17510 ft | 308 kts | 223° |
| 2026-04-16 15:02 | 24.06697 | 120.59448 | 17379 ft | 292 kts | 237° |
| 2026-04-16 15:03 | 24.05693 | 120.57549 | 17182 ft | 289 kts | 250° |
| 2026-04-16 15:03 | 24.05042 | 120.55483 | 17183 ft | 286 kts | 255° |
| 2026-04-16 15:03 | 24.04494 | 120.53416 | 16996 ft | 288 kts | 256° |
| 2026-04-16 15:03 | 24.03949 | 120.51271 | 16603 ft | 290 kts | 256° |
| 2026-04-16 15:04 | 24.03569 | 120.49129 | 16218 ft | 285 kts | 268° |
| 2026-04-16 15:04 | 24.03695 | 120.47008 | 15860 ft | 283 kts | 282° |
| 2026-04-16 15:04 | 24.04349 | 120.44961 | 15495 ft | 282 kts | 296° |
| 2026-04-16 15:04 | 24.05467 | 120.43204 | 15138 ft | 283 kts | 311° |
| 2026-04-16 15:05 | 24.06956 | 120.41844 | 14794 ft | 285 kts | 325° |
| 2026-04-16 15:05 | 24.08762 | 120.40937 | 14447 ft | 288 kts | 340° |
| 2026-04-16 15:05 | 24.10741 | 120.40571 | 14104 ft | 291 kts | 355° |
| 2026-04-16 15:05 | 24.12763 | 120.40778 | 13760 ft | 295 kts | 10° |
| 2026-04-16 15:06 | 24.14696 | 120.41550 | 13378 ft | 298 kts | 25° |
| 2026-04-16 15:06 | 24.16404 | 120.42841 | 13009 ft | 301 kts | 40° |
| 2026-04-16 15:06 | 24.17775 | 120.44571 | 12625 ft | 302 kts | 55° |
| 2026-04-16 15:06 | 24.18715 | 120.46627 | 12265 ft | 303 kts | 71° |
| 2026-04-16 15:07 | 24.19152 | 120.48874 | 12011 ft | 304 kts | 87° |
| 2026-04-16 15:07 | 24.19047 | 120.51202 | 12015 ft | 309 kts | 102° |
| 2026-04-16 15:07 | 24.18431 | 120.53439 | 12005 ft | 304 kts | 117° |
| 2026-04-16 15:07 | 24.17358 | 120.55394 | 11996 ft | 297 kts | 133° |
| 2026-04-16 15:08 | 24.15903 | 120.56956 | 11995 ft | 291 kts | 148° |
| 2026-04-16 15:08 | 24.14164 | 120.58036 | 11999 ft | 285 kts | 163° |
| 2026-04-16 15:08 | 24.12274 | 120.58611 | 12007 ft | 281 kts | 174° |
| 2026-04-16 15:08 | 24.10349 | 120.58933 | 11999 ft | 280 kts | 178° |
| 2026-04-16 15:09 | 24.08400 | 120.59026 | 11995 ft | 279 kts | 187° |
| 2026-04-16 15:09 | 24.06486 | 120.58784 | 12000 ft | 276 kts | 195° |
| 2026-04-16 15:09 | 24.04628 | 120.58263 | 12006 ft | 275 kts | 201° |
| 2026-04-16 15:09 | 24.02827 | 120.57553 | 12001 ft | 275 kts | 206° |
| 2026-04-16 15:10 | 24.01068 | 120.56722 | 11998 ft | 276 kts | 208° |
| 2026-04-16 15:10 | 23.99340 | 120.55817 | 11996 ft | 276 kts | 210° |
| 2026-04-16 15:10 | 23.97630 | 120.54869 | 11989 ft | 275 kts | 211° |
| 2026-04-16 15:10 | 23.95936 | 120.53898 | 11988 ft | 275 kts | 211° |
| 2026-04-16 15:11 | 23.94253 | 120.52916 | 11989 ft | 274 kts | 212° |
| 2026-04-16 15:11 | 23.92579 | 120.51929 | 11986 ft | 273 kts | 212° |
| 2026-04-16 15:11 | 23.90912 | 120.50941 | 11979 ft | 272 kts | 212° |
| 2026-04-16 15:11 | 23.89252 | 120.49954 | 11974 ft | 271 kts | 212° |
| 2026-04-16 15:12 | 23.87599 | 120.48972 | 11979 ft | 270 kts | 212° |
| 2026-04-16 15:12 | 23.85949 | 120.47995 | 11970 ft | 270 kts | 211° |
| 2026-04-16 15:12 | 23.83685 | 120.46707 | 11977 ft | 269 kts | 210° |
| 2026-04-16 15:12 | 23.78979 | 120.44063 | 11982 ft | 268 kts | 210° |
| 2026-04-16 15:13 | 23.77322 | 120.43131 | 11941 ft | 268 kts | 210° |
| 2026-04-16 15:13 | 23.75660 | 120.42197 | 11641 ft | 269 kts | 210° |
| 2026-04-16 15:13 | 23.73989 | 120.41256 | 11305 ft | 273 kts | 210° |
| 2026-04-16 15:13 | 23.72298 | 120.40304 | 11206 ft | 273 kts | 210° |
| 2026-04-16 15:14 | 23.70622 | 120.39363 | 11179 ft | 270 kts | 210° |
| 2026-04-16 15:14 | 23.68969 | 120.38434 | 11012 ft | 269 kts | 210° |
| 2026-04-16 15:14 | 23.67301 | 120.37495 | 10887 ft | 270 kts | 210° |
| 2026-04-16 15:14 | 23.65635 | 120.36559 | 10829 ft | 269 kts | 210° |
| 2026-04-16 15:15 | 23.63976 | 120.35626 | 10776 ft | 268 kts | 210° |
| 2026-04-16 15:15 | 23.62319 | 120.34695 | 10680 ft | 268 kts | 210° |
| 2026-04-16 15:15 | 23.60665 | 120.33765 | 10571 ft | 268 kts | 210° |
| 2026-04-16 15:15 | 23.59001 | 120.32830 | 10472 ft | 269 kts | 210° |
| 2026-04-16 15:16 | 23.57360 | 120.31909 | 10391 ft | 269 kts | 210° |
| 2026-04-16 15:16 | 23.55700 | 120.30977 | 10312 ft | 266 kts | 210° |
| 2026-04-16 15:16 | 23.54059 | 120.30056 | 10049 ft | 269 kts | 210° |
| 2026-04-16 15:16 | 23.52390 | 120.29119 | 9936 ft | 270 kts | 210° |
| 2026-04-16 15:17 | 23.51266 | 120.28489 | 9905 ft | 268 kts | 209° |
| 2026-04-16 15:17 | 23.49057 | 120.27251 | 9837 ft | 266 kts | 209° |
| 2026-04-16 15:17 | 23.47412 | 120.26329 | 9815 ft | 266 kts | 209° |
| 2026-04-16 15:17 | 23.45756 | 120.25400 | 9610 ft | 270 kts | 209° |
| 2026-04-16 15:18 | 23.44648 | 120.24779 | 9445 ft | 270 kts | 209° |
| 2026-04-16 15:18 | 23.42442 | 120.23544 | 9109 ft | 268 kts | 209° |
| 2026-04-16 15:18 | 23.40789 | 120.22618 | 8775 ft | 267 kts | 209° |
| 2026-04-16 15:18 | 23.39672 | 120.21993 | 8528 ft | 267 kts | 209° |
| 2026-04-16 15:19 | 23.37482 | 120.20767 | 8049 ft | 267 kts | 209° |
| 2026-04-16 15:19 | 23.35831 | 120.19843 | 7691 ft | 267 kts | 208° |
| 2026-04-16 15:19 | 23.34702 | 120.19244 | 7444 ft | 268 kts | 204° |
| 2026-04-16 15:19 | 23.32943 | 120.18573 | 7100 ft | 268 kts | 198° |
| 2026-04-16 15:20 | 23.31146 | 120.18020 | 6758 ft | 268 kts | 197° |
| 2026-04-16 15:20 | 23.29344 | 120.17490 | 6418 ft | 269 kts | 197° |
| 2026-04-16 15:20 | 23.27540 | 120.16960 | 6043 ft | 269 kts | 197° |
| 2026-04-16 15:20 | 23.25733 | 120.16426 | 5684 ft | 269 kts | 196° |
| 2026-04-16 15:21 | 23.23927 | 120.15890 | 5326 ft | 269 kts | 196° |
| 2026-04-16 15:21 | 23.22062 | 120.15333 | 5003 ft | 268 kts | 195° |
| 2026-04-16 15:21 | 23.18604 | 120.14297 | 4912 ft | 251 kts | 195° |
| 2026-04-16 15:21 | 23.15266 | 120.13296 | 4966 ft | 249 kts | 195° |
| 2026-04-16 15:22 | 23.11891 | 120.12282 | 4991 ft | 255 kts | 195° |
| 2026-04-16 15:22 | 23.09102 | 120.11444 | 4991 ft | 259 kts | 196° |
| 2026-04-16 15:22 | 23.07372 | 120.10924 | 4977 ft | 256 kts | 195° |
| 2026-04-16 15:22 | 23.05675 | 120.10413 | 4947 ft | 251 kts | 195° |
| 2026-04-16 15:23 | 23.04002 | 120.09911 | 4973 ft | 249 kts | 195° |
| 2026-04-16 15:23 | 23.02325 | 120.09407 | 4984 ft | 251 kts | 195° |
| 2026-04-16 15:23 | 23.00633 | 120.08899 | 4985 ft | 253 kts | 195° |
| 2026-04-16 15:23 | 22.96009 | 120.07511 | 5000 ft | 257 kts | 195° |
| 2026-04-16 15:24 | 22.89104 | 120.05455 | 4964 ft | 254 kts | 190° |
| 2026-04-16 15:24 | 22.87278 | 120.05633 | 4983 ft | 247 kts | 159° |
| 2026-04-16 15:24 | 22.85668 | 120.06360 | 4987 ft | 255 kts | 158° |
| 2026-04-16 15:24 | 22.84020 | 120.07098 | 4983 ft | 257 kts | 158° |
| 2026-04-16 15:25 | 22.82374 | 120.07835 | 4965 ft | 255 kts | 157° |
| 2026-04-16 15:25 | 22.80414 | 120.08714 | 4961 ft | 254 kts | 157° |
| 2026-04-16 15:25 | 22.77162 | 120.10176 | 4937 ft | 252 kts | 157° |
| 2026-04-16 15:25 | 22.71375 | 120.12767 | 4922 ft | 254 kts | 157° |
| 2026-04-16 15:26 | 22.65109 | 120.15569 | 5002 ft | 266 kts | 157° |
| 2026-04-16 15:26 | 22.63005 | 120.16507 | 4973 ft | 264 kts | 157° |
| 2026-04-16 15:26 | 22.61322 | 120.17259 | 4944 ft | 259 kts | 157° |
| 2026-04-16 15:26 | 22.59644 | 120.18009 | 4945 ft | 258 kts | 157° |
| 2026-04-16 15:27 | 22.58006 | 120.18740 | 4956 ft | 259 kts | 157° |
| 2026-04-16 15:27 | 22.56313 | 120.19496 | 4953 ft | 261 kts | 157° |
| 2026-04-16 15:27 | 22.54654 | 120.20236 | 4941 ft | 262 kts | 157° |
| 2026-04-16 15:27 | 22.52973 | 120.20985 | 4950 ft | 260 kts | 155° |
| 2026-04-16 15:28 | 22.51545 | 120.22107 | 4926 ft | 253 kts | 127° |
| 2026-04-16 15:28 | 22.50445 | 120.23646 | 4970 ft | 263 kts | 127° |
| 2026-04-16 15:28 | 22.49285 | 120.25189 | 4932 ft | 264 kts | 128° |
| 2026-04-16 15:28 | 22.48128 | 120.26709 | 4915 ft | 259 kts | 128° |
| 2026-04-16 15:29 | 22.46988 | 120.28208 | 4921 ft | 258 kts | 128° |
| 2026-04-16 15:29 | 22.45847 | 120.29712 | 4928 ft | 260 kts | 127° |
| 2026-04-16 15:29 | 22.44819 | 120.31294 | 4902 ft | 254 kts | 109° |
| 2026-04-16 15:29 | 22.44489 | 120.33131 | 4938 ft | 251 kts | 94° |
| 2026-04-16 15:30 | 22.44292 | 120.35032 | 4940 ft | 258 kts | 95° |
| 2026-04-16 15:30 | 22.44061 | 120.36955 | 4928 ft | 256 kts | 95° |
| 2026-04-16 15:30 | 22.43835 | 120.38823 | 4896 ft | 244 kts | 95° |
| 2026-04-16 15:30 | 22.43621 | 120.40597 | 4906 ft | 233 kts | 96° |
| 2026-04-16 15:31 | 22.43415 | 120.42317 | 4847 ft | 229 kts | 95° |
| 2026-04-16 15:31 | 22.43506 | 120.43993 | 4499 ft | 223 kts | 65° |
| 2026-04-16 15:31 | 22.44412 | 120.45281 | 4229 ft | 214 kts | 37° |
| 2026-04-16 15:31 | 22.45634 | 120.46179 | 4010 ft | 210 kts | 31° |
| 2026-04-16 15:32 | 22.46885 | 120.47004 | 3719 ft | 209 kts | 30° |
| 2026-04-16 15:32 | 22.48116 | 120.47811 | 3533 ft | 206 kts | 30° |
| 2026-04-16 15:32 | 22.49346 | 120.48622 | 3275 ft | 207 kts | 30° |
| 2026-04-16 15:32 | 22.50566 | 120.49432 | 3101 ft | 203 kts | 31° |
| 2026-04-16 15:33 | 22.51768 | 120.50231 | 2864 ft | 202 kts | 30° |
| 2026-04-16 15:33 | 22.52944 | 120.51016 | 2736 ft | 193 kts | 31° |
| 2026-04-16 15:33 | 22.54101 | 120.51657 | 2662 ft | 185 kts | 11° |
| 2026-04-16 15:33 | 22.55350 | 120.51585 | 2662 ft | 182 kts | 343° |
| 2026-04-16 15:34 | 22.56376 | 120.50810 | 2632 ft | 183 kts | 304° |
| 2026-04-16 15:34 | 22.56855 | 120.49553 | 2413 ft | 178 kts | 289° |
| 2026-04-16 15:34 | 22.57109 | 120.48298 | 2198 ft | 166 kts | 282° |
| 2026-04-16 15:34 | 22.57279 | 120.47057 | 1992 ft | 166 kts | 281° |
| 2026-04-16 15:35 | 22.57372 | 120.45852 | 1768 ft | 156 kts | 276° |
| 2026-04-16 15:35 | 22.57414 | 120.44703 | 1606 ft | 152 kts | 276° |
| 2026-04-16 15:35 | 22.57451 | 120.43552 | 1411 ft | 153 kts | 274° |
| 2026-04-16 15:35 | 22.57483 | 120.42414 | 1204 ft | 149 kts | 275° |
| 2026-04-16 15:36 | 22.57518 | 120.41295 | 1032 ft | 149 kts | 276° |
| 2026-04-16 15:36 | 22.57552 | 120.40166 | 830 ft | 152 kts | 275° |
| 2026-04-16 15:36 | 22.57582 | 120.39053 | 604 ft | 147 kts | 275° |
| 2026-04-16 15:36 | 22.57619 | 120.37965 | 385 ft | 145 kts | 276° |
| 2026-04-16 15:37 | 22.57653 | 120.36870 | 241 ft | 144 kts | 274° |
| 2026-04-16 15:37 | 22.57680 | 120.35830 | 47 ft | 132 kts | 275° |
| 2026-04-16 15:37 | 22.57707 | 120.34955 | 43 ft | 95 kts | 272° |
| 2026-04-16 15:37 | 22.57728 | 120.34442 | 44 ft | 60 kts | 272° |
| 2026-04-16 15:38 | 22.57709 | 120.34154 | 42 ft | 20 kts | 230° |
| 2026-04-16 15:38 | 22.57669 | 120.34121 | 43 ft | 0 kts | 213° |
| 2026-04-16 15:38 | 22.57656 | 120.34111 | 43 ft | 0 kts | 220° |
| 2026-04-16 15:39 | 22.57635 | 120.34094 | 43 ft | 9 kts | 217° |
| 2026-04-16 15:40 | 22.57625 | 120.34086 | 43 ft | 0 kts | 216° |
| 2026-04-16 15:40 | 22.57622 | 120.34085 | 43 ft | 1 kts | 211° |
| 2026-04-16 15:41 | 22.57613 | 120.34084 | 43 ft | 2 kts | 183° |
| 2026-04-16 15:41 | 22.57598 | 120.34091 | 43 ft | 5 kts | 157° |
| 2026-04-16 15:41 | 22.57567 | 120.34125 | 43 ft | 8 kts | 107° |
| 2026-04-16 15:41 | 22.57565 | 120.34208 | 43 ft | 14 kts | 91° |
| 2026-04-16 15:42 | 22.57562 | 120.34324 | 43 ft | 16 kts | 91° |
| 2026-04-16 15:42 | 22.57558 | 120.34446 | 43 ft | 16 kts | 93° |
| 2026-04-16 15:42 | 22.57553 | 120.34556 | 43 ft | 11 kts | 98° |
| 2026-04-16 15:42 | 22.57522 | 120.34603 | 42 ft | 12 kts | 146° |
| 2026-04-16 15:43 | 22.57433 | 120.34615 | 43 ft | 2 kts | 180° |
| 2026-04-16 15:43 | 22.57429 | 120.34615 | 5 ft | 0 kts | 180° |